Time;durP1;ratioP1;P1;durP2;ratioP2;P2;SDS_P1;SDS_P2;PMS_P1;PMS_P2;Temp;Humidity;BMP_temperature;BMP_pressure;BME280_temperature;BME280_humidity;BME280_pressure;Samples;Min_cycle;Max_cycle;Signal;HPM_P1;HPM_P2
2023/01/30 00:00:56;;;;;;;75.10;35.83;;;6.00;99.90;;;;;;4985365;28;20327;-68
2023/01/30 00:03:23;;;;;;;70.63;31.70;;;6.00;99.90;;;;;;4981310;28;20233;-69
2023/01/30 00:05:50;;;;;;;72.40;35.97;;;6.00;99.90;;;;;;4981994;28;20288;-70
2023/01/30 00:08:18;;;;;;;78.10;35.93;;;6.10;99.90;;;;;;4978792;28;20696;-68
2023/01/30 00:10:45;;;;;;;76.00;35.53;;;6.00;99.90;;;;;;4984787;28;20591;-67
2023/01/30 00:13:13;;;;;;;67.07;34.40;;;6.10;99.90;;;;;;4982006;28;20217;-69
2023/01/30 00:15:40;;;;;;;65.47;33.47;;;6.10;99.90;;;;;;4983818;28;20238;-68
2023/01/30 00:18:07;;;;;;;73.33;35.60;;;6.10;99.90;;;;;;4981025;28;20220;-68
2023/01/30 00:20:34;;;;;;;70.87;34.43;;;6.10;99.90;;;;;;4989503;28;20600;-69
2023/01/30 00:23:01;;;;;;;70.30;35.23;;;6.10;99.90;;;;;;4979437;28;20597;-70
2023/01/30 00:25:28;;;;;;;71.10;35.37;;;6.20;99.90;;;;;;4963544;28;20723;-70
2023/01/30 00:27:57;;;;;;;70.03;34.90;;;6.20;99.90;;;;;;4982740;28;20201;-70
2023/01/30 00:30:23;;;;;;;66.40;35.87;;;6.20;99.90;;;;;;4985285;28;20603;-71
2023/01/30 00:32:55;;;;;;;76.23;35.60;;;6.30;99.90;;;;;;4983313;28;20247;-70
2023/01/30 00:35:27;;;;;;;72.70;34.50;;;6.20;99.90;;;;;;4986517;28;20210;-68
2023/01/30 00:37:57;;;;;;;69.27;35.27;;;6.30;99.90;;;;;;4985767;28;20204;-70
2023/01/30 00:40:26;;;;;;;81.17;37.10;;;6.30;99.90;;;;;;4990169;28;20255;-70
2023/01/30 00:48:27;;;;;;;66.27;33.17;;;6.40;99.90;;;;;;4974534;28;20490;-70
2023/01/30 00:50:54;;;;;;;67.77;33.33;;;6.40;99.90;;;;;;4988690;28;20227;-69
2023/01/30 00:53:21;;;;;;;61.33;33.43;;;6.50;99.90;;;;;;4991841;28;20205;-70
2023/01/30 00:55:50;;;;;;;73.37;33.77;;;6.50;99.90;;;;;;4988638;28;20548;-69
2023/01/30 00:58:17;;;;;;;62.20;32.07;;;6.50;99.90;;;;;;4976482;28;20224;-70
2023/01/30 01:00:44;;;;;;;58.77;32.00;;;6.60;99.90;;;;;;4985343;28;20270;-70
2023/01/30 01:03:11;;;;;;;66.23;32.20;;;6.60;99.90;;;;;;4971059;28;20259;-70
2023/01/30 01:05:38;;;;;;;62.63;31.13;;;6.70;99.90;;;;;;4985824;28;20573;-69
2023/01/30 01:08:05;;;;;;;65.43;31.40;;;6.70;99.90;;;;;;4990054;28;20365;-69
2023/01/30 01:10:32;;;;;;;60.03;30.80;;;6.80;99.90;;;;;;4983989;28;20238;-69
2023/01/30 01:12:59;;;;;;;59.83;31.60;;;6.80;99.90;;;;;;4985609;28;20258;-70
2023/01/30 01:15:26;;;;;;;62.57;30.90;;;6.80;99.90;;;;;;4985768;28;20212;-69
2023/01/30 01:17:53;;;;;;;60.63;29.47;;;6.80;99.90;;;;;;4988860;28;20238;-70
2023/01/30 01:20:21;;;;;;;60.83;29.73;;;6.90;99.90;;;;;;4986011;28;20592;-70
2023/01/30 01:22:53;;;;;;;60.20;29.90;;;7.00;99.90;;;;;;4988131;28;20307;-70
2023/01/30 01:25:20;;;;;;;61.57;29.30;;;7.00;99.90;;;;;;4968150;28;20239;-71
2023/01/30 01:27:47;;;;;;;48.93;26.87;;;7.00;99.90;;;;;;4987617;28;20203;-68
2023/01/30 01:30:14;;;;;;;59.93;28.97;;;7.10;99.90;;;;;;4985259;28;20230;-71
2023/01/30 01:32:41;;;;;;;53.43;28.37;;;7.10;99.90;;;;;;4987027;28;20284;-69
2023/01/30 01:35:08;;;;;;;48.67;27.47;;;7.10;99.90;;;;;;4985187;28;20207;-67
2023/01/30 01:37:35;;;;;;;51.70;27.43;;;7.10;99.90;;;;;;4987020;28;20294;-68
2023/01/30 01:42:49;;;;;;;48.03;25.90;;;7.20;99.90;;;;;;4986162;28;20203;-69
2023/01/30 01:45:23;;;;;;;44.07;24.77;;;7.20;99.90;;;;;;4988465;28;20209;-70
2023/01/30 01:48:17;;;;;;;50.70;25.77;;;7.30;99.90;;;;;;4987457;28;20221;-69
2023/01/30 01:51:01;;;;;;;47.17;24.87;;;7.30;99.90;;;;;;4985538;28;20238;-69
2023/01/30 01:53:33;;;;;;;45.97;24.83;;;7.30;99.90;;;;;;4984461;28;20215;-69
2023/01/30 01:56:01;;;;;;;48.00;25.90;;;7.40;99.90;;;;;;4988812;28;20305;-69
2023/01/30 01:58:39;;;;;;;44.93;25.00;;;7.30;99.90;;;;;;4986544;28;20207;-69
2023/01/30 02:01:06;;;;;;;52.83;24.90;;;7.40;99.90;;;;;;4984884;28;20242;-68
2023/01/30 02:03:38;;;;;;;44.83;25.80;;;7.40;99.90;;;;;;4987364;28;20282;-69
2023/01/30 02:06:07;;;;;;;49.13;22.87;;;7.40;99.90;;;;;;4981185;28;20206;-67
2023/01/30 02:08:38;;;;;;;48.37;24.30;;;7.40;99.90;;;;;;4984851;28;20240;-70
2023/01/30 02:11:40;;;;;;;44.80;24.23;;;7.40;99.90;;;;;;4985695;28;20322;-68
2023/01/30 02:14:08;;;;;;;37.30;21.77;;;7.40;99.90;;;;;;4986613;28;20203;-70
2023/01/30 02:16:36;;;;;;;41.27;22.83;;;7.40;99.90;;;;;;4987105;28;20297;-69
2023/01/30 02:19:10;;;;;;;43.10;23.10;;;7.40;99.90;;;;;;4987146;28;20230;-69
2023/01/30 02:22:02;;;;;;;41.13;21.63;;;7.40;99.90;;;;;;4983480;28;20222;-69
2023/01/30 02:24:50;;;;;;;37.40;20.40;;;7.40;99.90;;;;;;4985696;28;20207;-69
2023/01/30 02:27:40;;;;;;;40.97;22.03;;;7.40;99.90;;;;;;4984976;28;20218;-69
2023/01/30 02:30:10;;;;;;;43.53;21.97;;;7.40;99.90;;;;;;4984271;28;20318;-69
2023/01/30 02:32:53;;;;;;;36.97;20.13;;;7.40;99.90;;;;;;4968801;28;20226;-70
2023/01/30 02:35:37;;;;;;;37.97;20.53;;;7.40;99.90;;;;;;4985068;28;20241;-70
2023/01/30 02:38:39;;;;;;;37.57;20.67;;;7.40;99.90;;;;;;4986011;28;20282;-70
2023/01/30 02:41:57;;;;;;;35.27;19.73;;;7.40;99.90;;;;;;4964257;28;20204;-70
2023/01/30 02:44:26;;;;;;;34.03;19.03;;;7.50;99.90;;;;;;4953064;28;20692;-70
2023/01/30 02:46:58;;;;;;;33.03;19.67;;;7.50;99.90;;;;;;4982819;28;20648;-70
2023/01/30 02:49:30;;;;;;;32.17;19.07;;;7.50;99.90;;;;;;4989468;28;20580;-70
2023/01/30 02:52:00;;;;;;;33.80;18.50;;;7.50;99.90;;;;;;4986707;28;20238;-70
2023/01/30 02:54:27;;;;;;;31.53;18.43;;;7.40;99.90;;;;;;4987500;28;20247;-70
2023/01/30 02:56:57;;;;;;;37.87;19.60;;;7.40;99.90;;;;;;4988442;28;20209;-70
2023/01/30 02:59:30;;;;;;;30.63;18.17;;;7.50;99.90;;;;;;4973020;28;20239;-69
2023/01/30 03:02:44;;;;;;;30.97;18.57;;;7.50;99.90;;;;;;4981486;28;20718;-69
2023/01/30 03:05:29;;;;;;;30.47;18.40;;;7.40;99.90;;;;;;4927595;28;20222;-70
2023/01/30 03:08:08;;;;;;;31.10;17.53;;;7.40;99.90;;;;;;4985325;28;20301;-70
2023/01/30 03:10:57;;;;;;;25.57;16.13;;;7.50;99.90;;;;;;4983087;28;20259;-69
2023/01/30 03:13:45;;;;;;;26.63;14.90;;;7.50;99.90;;;;;;4986263;28;20199;-69
2023/01/30 03:16:22;;;;;;;22.60;14.07;;;7.50;99.90;;;;;;4983258;28;20573;-69
2023/01/30 03:18:49;;;;;;;24.07;14.23;;;7.50;99.90;;;;;;4982934;28;20343;-69
2023/01/30 03:21:16;;;;;;;23.30;12.10;;;7.50;99.90;;;;;;4983981;28;20261;-67
2023/01/30 03:23:45;;;;;;;19.40;13.03;;;7.50;99.90;;;;;;4983590;28;20257;-67
2023/01/30 03:26:23;;;;;;;22.70;11.97;;;7.50;99.90;;;;;;4988758;28;20285;-70
2023/01/30 03:28:51;;;;;;;19.13;11.20;;;7.50;99.90;;;;;;4983991;28;20219;-70
2023/01/30 03:31:18;;;;;;;22.70;11.47;;;7.60;99.90;;;;;;4986531;28;20313;-69
2023/01/30 03:33:45;;;;;;;27.33;12.13;;;7.60;99.90;;;;;;4982921;28;20216;-71
2023/01/30 03:36:12;;;;;;;22.80;11.77;;;7.60;99.90;;;;;;4988535;28;20206;-70
2023/01/30 03:38:39;;;;;;;25.03;11.53;;;7.60;99.90;;;;;;4982229;28;20660;-68
2023/01/30 03:41:06;;;;;;;25.50;10.77;;;7.60;99.90;;;;;;4987093;28;20228;-69
2023/01/30 03:43:32;;;;;;;23.60;11.13;;;7.60;99.90;;;;;;4984425;28;20205;-69
2023/01/30 03:45:59;;;;;;;20.87;11.00;;;7.60;99.90;;;;;;4985379;28;20206;-68
2023/01/30 03:48:26;;;;;;;20.17;10.47;;;7.70;99.90;;;;;;4985741;28;20229;-68
2023/01/30 03:50:53;;;;;;;22.87;9.97;;;7.70;99.90;;;;;;4985603;28;20230;-69
2023/01/30 03:53:19;;;;;;;22.83;10.43;;;7.60;99.90;;;;;;4984729;28;20301;-69
2023/01/30 03:55:46;;;;;;;26.53;10.43;;;7.70;99.90;;;;;;4988669;28;20222;-68
2023/01/30 03:58:13;;;;;;;26.13;10.17;;;7.70;99.90;;;;;;4989503;28;20207;-68
2023/01/30 04:00:39;;;;;;;24.10;9.90;;;7.70;99.90;;;;;;4982397;28;20314;-70
2023/01/30 04:03:06;;;;;;;26.23;9.37;;;7.70;99.90;;;;;;4982900;28;20215;-68
2023/01/30 04:05:33;;;;;;;25.10;9.33;;;7.70;99.90;;;;;;4983244;28;20311;-68
2023/01/30 04:08:00;;;;;;;24.80;10.67;;;7.70;99.90;;;;;;4984337;28;20207;-68
2023/01/30 04:10:26;;;;;;;29.67;11.40;;;7.70;99.90;;;;;;4984415;28;20679;-69
2023/01/30 04:12:53;;;;;;;26.60;11.33;;;7.80;99.90;;;;;;4988818;28;20207;-69
2023/01/30 04:15:20;;;;;;;27.13;9.80;;;7.80;99.90;;;;;;4987746;28;20687;-69
2023/01/30 04:17:46;;;;;;;29.60;10.23;;;7.70;99.90;;;;;;4990087;28;20254;-70
2023/01/30 04:20:13;;;;;;;28.47;10.57;;;7.70;99.90;;;;;;4988635;28;20221;-69
2023/01/30 04:22:40;;;;;;;21.97;9.43;;;7.80;99.90;;;;;;4969726;28;20312;-68
2023/01/30 04:25:07;;;;;;;26.60;8.83;;;7.80;99.90;;;;;;4990071;28;20305;-71
2023/01/30 04:27:34;;;;;;;25.00;10.40;;;7.80;99.90;;;;;;4988387;28;20223;-70
2023/01/30 04:30:01;;;;;;;27.83;10.40;;;7.80;99.90;;;;;;4989535;28;20209;-69
2023/01/30 04:32:28;;;;;;;26.23;8.87;;;7.80;99.90;;;;;;4989350;28;20250;-70
2023/01/30 04:34:55;;;;;;;26.13;9.57;;;7.80;99.90;;;;;;4986785;28;20646;-68
2023/01/30 04:37:22;;;;;;;21.07;9.53;;;7.80;99.90;;;;;;4989420;28;20622;-68
2023/01/30 04:39:49;;;;;;;31.07;10.00;;;7.80;99.90;;;;;;4994304;28;20209;-71
2023/01/30 04:42:15;;;;;;;23.67;10.80;;;7.80;99.90;;;;;;4990492;28;20608;-71
2023/01/30 04:44:42;;;;;;;21.60;9.43;;;7.80;99.90;;;;;;4991156;28;20204;-71
2023/01/30 04:47:09;;;;;;;20.07;9.40;;;7.80;99.90;;;;;;4985759;28;20321;-71
2023/01/30 04:49:35;;;;;;;19.70;9.10;;;7.80;99.90;;;;;;4987528;28;20678;-68
2023/01/30 04:52:04;;;;;;;20.57;9.17;;;7.90;99.90;;;;;;4957325;28;20249;-70
2023/01/30 04:54:30;;;;;;;22.10;8.90;;;7.90;99.90;;;;;;4975522;28;20213;-70
2023/01/30 04:56:57;;;;;;;24.40;10.00;;;7.90;99.90;;;;;;4970367;28;20290;-70
2023/01/30 04:59:24;;;;;;;20.17;9.47;;;7.90;99.90;;;;;;4982022;28;20305;-68
2023/01/30 05:01:50;;;;;;;22.60;9.03;;;7.90;99.90;;;;;;4971561;28;20243;-71
2023/01/30 05:04:17;;;;;;;29.40;11.97;;;7.90;99.90;;;;;;4988901;28;20231;-70
2023/01/30 05:06:44;;;;;;;24.37;10.30;;;7.90;99.90;;;;;;4989110;28;20582;-69
2023/01/30 05:09:11;;;;;;;35.23;10.13;;;7.90;99.90;;;;;;4986046;28;20205;-70
2023/01/30 05:11:38;;;;;;;25.27;9.20;;;7.90;99.90;;;;;;4988866;28;20234;-70
2023/01/30 05:14:05;;;;;;;24.43;10.87;;;7.90;99.90;;;;;;4985675;28;20732;-70
2023/01/30 05:16:31;;;;;;;19.27;7.87;;;7.90;99.90;;;;;;4988879;28;20203;-70
2023/01/30 05:18:58;;;;;;;22.13;8.40;;;7.90;99.90;;;;;;4985604;28;20218;-70
2023/01/30 05:21:29;;;;;;;21.17;8.03;;;7.90;99.90;;;;;;4988514;28;20252;-70
2023/01/30 05:23:56;;;;;;;21.10;7.87;;;7.90;99.90;;;;;;4987037;28;20602;-68
2023/01/30 05:26:23;;;;;;;20.03;7.10;;;7.90;99.90;;;;;;4986326;28;20208;-70
2023/01/30 05:28:55;;;;;;;20.37;6.80;;;7.90;99.90;;;;;;4987777;28;20219;-69
2023/01/30 05:31:23;;;;;;;16.97;6.30;;;7.90;99.90;;;;;;4983570;28;20290;-71
2023/01/30 05:33:51;;;;;;;25.80;8.67;;;7.90;99.90;;;;;;4972497;28;20214;-69
2023/01/30 05:36:20;;;;;;;24.87;7.40;;;7.90;99.90;;;;;;4987360;28;20231;-70
2023/01/30 05:38:46;;;;;;;19.13;5.93;;;7.90;99.90;;;;;;4988574;28;20199;-70
2023/01/30 05:41:15;;;;;;;20.27;5.73;;;7.90;99.90;;;;;;4986429;28;20217;-71
2023/01/30 05:43:42;;;;;;;12.77;5.20;;;7.90;99.90;;;;;;4974887;28;20628;-68
2023/01/30 05:46:11;;;;;;;14.17;4.90;;;7.80;99.90;;;;;;4985343;28;20638;-70
2023/01/30 05:48:38;;;;;;;17.50;4.67;;;7.80;99.90;;;;;;4987199;28;20676;-70
2023/01/30 05:51:05;;;;;;;13.87;4.13;;;7.70;99.90;;;;;;4975845;28;20340;-70
2023/01/30 05:53:33;;;;;;;13.40;3.90;;;7.70;99.90;;;;;;4987920;28;20738;-68
2023/01/30 05:56:04;;;;;;;14.90;4.00;;;7.60;99.90;;;;;;4985166;28;20211;-70
2023/01/30 05:58:31;;;;;;;15.60;4.10;;;7.60;99.90;;;;;;4985198;28;20216;-70
2023/01/30 06:01:03;;;;;;;17.43;4.50;;;7.50;99.90;;;;;;4984531;28;20981;-70
2023/01/30 06:03:31;;;;;;;18.73;4.03;;;7.50;99.90;;;;;;4981374;28;20211;-69
2023/01/30 06:06:00;;;;;;;14.27;3.63;;;7.40;99.90;;;;;;4972114;28;20285;-71
2023/01/30 06:08:27;;;;;;;15.70;3.53;;;7.40;99.90;;;;;;4983482;28;20664;-69
2023/01/30 06:10:54;;;;;;;15.93;3.73;;;7.30;99.90;;;;;;4988836;28;20230;-69
2023/01/30 06:13:20;;;;;;;16.43;3.80;;;7.30;99.90;;;;;;4985761;28;20200;-71
2023/01/30 06:15:47;;;;;;;20.47;3.60;;;7.30;99.90;;;;;;4987594;28;20214;-70
2023/01/30 06:18:14;;;;;;;19.73;4.00;;;7.20;99.90;;;;;;4985966;28;20214;-71
2023/01/30 06:20:47;;;;;;;21.37;5.20;;;7.20;99.90;;;;;;4992986;28;20660;-71
2023/01/30 06:23:14;;;;;;;20.90;4.23;;;7.10;99.90;;;;;;4971883;28;20724;-70
2023/01/30 06:25:47;;;;;;;16.10;4.33;;;7.00;99.90;;;;;;4986364;28;20603;-70
2023/01/30 06:28:15;;;;;;;20.13;3.17;;;7.00;99.90;;;;;;4983384;28;20613;-70
2023/01/30 06:30:42;;;;;;;19.63;3.90;;;6.90;99.90;;;;;;4986581;28;20226;-70
2023/01/30 06:33:10;;;;;;;18.80;4.23;;;6.90;99.90;;;;;;4988811;28;20231;-70
2023/01/30 06:35:37;;;;;;;24.63;5.13;;;6.80;99.90;;;;;;4982917;28;20456;-68
2023/01/30 06:38:05;;;;;;;17.07;3.43;;;6.80;99.90;;;;;;4983377;28;20682;-70
2023/01/30 06:40:32;;;;;;;12.67;4.20;;;6.70;99.90;;;;;;4986769;28;20679;-70
2023/01/30 06:42:58;;;;;;;19.37;5.50;;;6.70;99.90;;;;;;4982595;28;20721;-69
2023/01/30 06:45:25;;;;;;;25.17;4.60;;;6.60;99.90;;;;;;4986868;28;20208;-70
2023/01/30 06:47:54;;;;;;;20.97;4.57;;;6.60;99.90;;;;;;4984026;28;20695;-69
2023/01/30 06:50:23;;;;;;;16.87;3.83;;;6.50;99.90;;;;;;4983690;28;20238;-70
2023/01/30 06:52:51;;;;;;;22.63;3.80;;;6.50;99.90;;;;;;4987721;28;20205;-70
2023/01/30 06:55:20;;;;;;;18.10;3.90;;;6.40;99.90;;;;;;4989761;28;20290;-69
2023/01/30 06:57:48;;;;;;;16.97;3.80;;;6.40;99.90;;;;;;4988510;28;20704;-70
2023/01/30 07:00:19;;;;;;;25.17;4.10;;;6.40;99.90;;;;;;4972114;28;20318;-70
2023/01/30 07:02:46;;;;;;;18.33;4.47;;;6.30;99.90;;;;;;4991256;28;20213;-70
2023/01/30 07:05:13;;;;;;;24.80;4.63;;;6.30;99.90;;;;;;4990383;28;20211;-69
2023/01/30 07:07:39;;;;;;;19.47;4.03;;;6.30;99.90;;;;;;4985332;28;20208;-69
2023/01/30 07:10:07;;;;;;;17.67;3.60;;;6.30;99.90;;;;;;4986643;28;20205;-69
2023/01/30 07:12:35;;;;;;;19.23;3.97;;;6.30;99.90;;;;;;4986033;28;20225;-69
2023/01/30 07:15:04;;;;;;;22.03;4.53;;;6.30;99.90;;;;;;4987309;28;20203;-69
2023/01/30 07:17:31;;;;;;;14.03;3.70;;;6.30;99.90;;;;;;4985113;28;20215;-69
2023/01/30 07:19:58;;;;;;;18.17;3.30;;;6.30;99.90;;;;;;4971480;28;20199;-69
2023/01/30 07:22:24;;;;;;;26.90;4.37;;;6.30;99.90;;;;;;4986241;28;20201;-71
2023/01/30 07:24:51;;;;;;;21.77;3.73;;;6.30;99.90;;;;;;4986991;28;20242;-69
2023/01/30 07:27:18;;;;;;;22.93;3.77;;;6.20;99.90;;;;;;4986113;28;20200;-70
2023/01/30 07:29:44;;;;;;;19.50;4.13;;;6.20;99.90;;;;;;4985868;28;20293;-69
2023/01/30 07:32:18;;;;;;;26.33;5.30;;;6.20;99.90;;;;;;4986469;28;20353;-70
2023/01/30 07:34:46;;;;;;;15.13;4.87;;;6.20;99.90;;;;;;4972827;28;20295;-69
2023/01/30 07:37:13;;;;;;;19.63;4.40;;;6.30;99.90;;;;;;4987720;28;20704;-70
2023/01/30 07:39:40;;;;;;;27.83;3.97;;;6.40;99.90;;;;;;4972796;28;20606;-69
2023/01/30 07:42:07;;;;;;;31.33;4.73;;;6.40;99.90;;;;;;4984453;28;20215;-70
2023/01/30 07:44:34;;;;;;;22.60;4.50;;;6.40;99.90;;;;;;4984180;28;20207;-69
2023/01/30 07:47:00;;;;;;;23.60;4.13;;;6.40;99.90;;;;;;4984388;28;20322;-70
2023/01/30 07:49:28;;;;;;;15.77;3.60;;;6.40;99.90;;;;;;4988278;28;20221;-70
2023/01/30 07:51:54;;;;;;;21.70;4.73;;;6.40;99.90;;;;;;4984934;28;20227;-72
2023/01/30 07:54:21;;;;;;;20.53;4.93;;;6.40;99.90;;;;;;4986448;28;20312;-69
2023/01/30 07:56:48;;;;;;;22.17;4.80;;;6.40;99.90;;;;;;4976168;28;20245;-70
2023/01/30 07:59:14;;;;;;;20.03;3.97;;;6.50;99.90;;;;;;4984575;28;20239;-70
2023/01/30 08:01:41;;;;;;;23.10;5.17;;;6.50;99.90;;;;;;4984860;28;20246;-70
2023/01/30 08:04:08;;;;;;;25.17;5.93;;;6.50;99.90;;;;;;4987321;28;20247;-70
2023/01/30 08:06:37;;;;;;;19.60;3.73;;;6.50;99.90;;;;;;4988091;28;20670;-72
2023/01/30 08:09:06;;;;;;;32.07;4.30;;;6.60;99.90;;;;;;4969711;28;20780;-69
2023/01/30 08:11:33;;;;;;;23.00;4.00;;;6.70;99.90;;;;;;4985979;28;20224;-70
2023/01/30 08:14:00;;;;;;;17.77;4.17;;;6.70;99.90;;;;;;4972177;28;20292;-70
2023/01/30 08:16:26;;;;;;;27.73;5.27;;;6.80;99.90;;;;;;4967350;28;20207;-69
2023/01/30 08:18:53;;;;;;;25.03;5.70;;;6.80;99.90;;;;;;4984744;28;20205;-70
2023/01/30 08:21:20;;;;;;;24.27;4.53;;;6.80;99.90;;;;;;4985950;28;20236;-70
2023/01/30 08:23:47;;;;;;;16.87;3.53;;;6.80;99.90;;;;;;4987446;28;20188;-70
2023/01/30 08:26:13;;;;;;;22.73;4.20;;;6.90;99.90;;;;;;4985294;28;20239;-70
2023/01/30 08:28:40;;;;;;;17.53;4.10;;;7.00;99.90;;;;;;4983302;28;20211;-70
2023/01/30 08:31:12;;;;;;;17.60;3.50;;;7.00;99.90;;;;;;4983699;28;20212;-70
2023/01/30 08:33:39;;;;;;;17.37;4.17;;;7.10;99.90;;;;;;4984660;28;20263;-70
2023/01/30 08:36:06;;;;;;;21.03;4.27;;;7.20;99.90;;;;;;4983610;28;20196;-70
2023/01/30 08:38:33;;;;;;;20.20;3.97;;;7.20;99.90;;;;;;4971570;28;20701;-70
2023/01/30 08:41:00;;;;;;;16.40;3.70;;;7.30;99.90;;;;;;4987307;28;20197;-70
2023/01/30 08:43:27;;;;;;;19.80;3.17;;;7.30;99.90;;;;;;4987610;28;20231;-70
2023/01/30 08:45:54;;;;;;;19.57;3.50;;;7.30;99.90;;;;;;4983870;28;20202;-70
2023/01/30 08:48:21;;;;;;;22.17;3.50;;;7.30;99.90;;;;;;4984260;28;20230;-70
2023/01/30 08:50:55;;;;;;;27.10;4.13;;;7.30;99.90;;;;;;4986385;28;20211;-70
2023/01/30 08:53:22;;;;;;;13.47;3.53;;;7.30;99.90;;;;;;4989157;28;20306;-70
2023/01/30 08:55:52;;;;;;;27.17;4.30;;;7.30;99.90;;;;;;4986193;28;20209;-70
2023/01/30 08:58:20;;;;;;;28.87;6.83;;;7.40;99.90;;;;;;4987781;28;20719;-70
2023/01/30 09:00:48;;;;;;;14.60;4.20;;;7.40;99.90;;;;;;4984806;28;20682;-70
2023/01/30 09:03:16;;;;;;;18.30;3.73;;;7.40;99.90;;;;;;4988373;28;20663;-71
2023/01/30 09:05:43;;;;;;;20.33;4.70;;;7.40;99.90;;;;;;4986907;28;20202;-70
2023/01/30 09:08:10;;;;;;;25.43;4.23;;;7.50;99.90;;;;;;4977501;28;20211;-69
2023/01/30 09:10:37;;;;;;;31.40;4.57;;;7.50;99.90;;;;;;4982050;28;20206;-69
2023/01/30 09:13:04;;;;;;;23.53;4.77;;;7.50;99.90;;;;;;4986769;28;20245;-69
2023/01/30 09:15:31;;;;;;;21.90;4.60;;;7.50;99.90;;;;;;4986503;28;20286;-69
2023/01/30 09:17:58;;;;;;;23.23;4.50;;;7.50;99.90;;;;;;4987106;28;20257;-69
2023/01/30 09:20:25;;;;;;;23.80;4.30;;;7.50;99.90;;;;;;4984113;28;20214;-69
2023/01/30 09:22:52;;;;;;;15.20;3.53;;;7.60;99.90;;;;;;4987274;28;20682;-69
2023/01/30 09:25:19;;;;;;;20.03;4.20;;;7.60;99.90;;;;;;4986700;28;20651;-69
2023/01/30 09:27:49;;;;;;;18.10;3.93;;;7.60;99.90;;;;;;4988442;28;20664;-68
2023/01/30 09:30:16;;;;;;;22.37;4.10;;;7.60;99.90;;;;;;4968929;28;20207;-69
2023/01/30 09:32:43;;;;;;;21.43;4.37;;;7.60;99.90;;;;;;4988531;28;20683;-69
2023/01/30 09:35:10;;;;;;;22.33;3.97;;;7.60;99.90;;;;;;4986363;28;20324;-69
2023/01/30 09:37:37;;;;;;;18.87;3.83;;;7.70;99.90;;;;;;4988573;28;20207;-68
2023/01/30 09:40:04;;;;;;;16.47;3.87;;;7.70;99.90;;;;;;4969367;28;20303;-69
2023/01/30 09:42:55;;;;;;;23.40;4.40;;;7.70;99.90;;;;;;4986792;28;20665;-69
2023/01/30 09:45:46;;;;;;;15.67;3.87;;;7.70;99.90;;;;;;4994569;28;20213;-69
2023/01/30 09:48:44;;;;;;;23.67;4.67;;;7.80;99.90;;;;;;4983017;28;20638;-69
2023/01/30 09:51:43;;;;;;;14.73;3.97;;;7.80;99.90;;;;;;4983229;28;20207;-69
2023/01/30 09:54:28;;;;;;;20.53;3.97;;;7.90;99.90;;;;;;4984644;28;20214;-68
2023/01/30 09:57:23;;;;;;;18.93;4.17;;;7.90;99.90;;;;;;4989419;28;20207;-69
2023/01/30 10:00:09;;;;;;;22.13;4.30;;;7.90;99.90;;;;;;4984612;28;20245;-69
2023/01/30 10:02:46;;;;;;;20.87;4.43;;;8.00;99.90;;;;;;4965353;28;20224;-69
2023/01/30 10:05:13;;;;;;;14.20;3.90;;;8.00;99.90;;;;;;4965864;28;20217;-69
2023/01/30 10:07:59;;;;;;;22.10;5.27;;;8.00;99.90;;;;;;4966875;28;20403;-69
2023/01/30 10:10:48;;;;;;;26.70;5.10;;;8.00;99.90;;;;;;4964754;28;20209;-69
2023/01/30 10:13:35;;;;;;;23.60;5.00;;;8.00;99.90;;;;;;4963891;28;20240;-69
2023/01/30 10:16:17;;;;;;;20.27;4.37;;;8.10;99.90;;;;;;4965615;28;20218;-69
2023/01/30 10:19:21;;;;;;;20.67;4.07;;;8.00;99.90;;;;;;4968241;28;20310;-69
2023/01/30 10:22:27;;;;;;;18.73;5.87;;;8.10;99.90;;;;;;4969979;28;20211;-67
2023/01/30 10:25:10;;;;;;;21.27;3.37;;;8.00;99.90;;;;;;4967067;28;20205;-69
2023/01/30 10:27:43;;;;;;;16.57;3.70;;;8.00;99.90;;;;;;4966026;28;20245;-68
2023/01/30 10:30:15;;;;;;;27.80;6.07;;;8.00;99.90;;;;;;4968668;28;20536;-68
2023/01/30 10:32:48;;;;;;;17.93;4.37;;;8.00;99.90;;;;;;4968185;28;20233;-68
2023/01/30 10:35:22;;;;;;;15.60;3.63;;;8.00;99.90;;;;;;4967474;28;20294;-69
2023/01/30 10:37:58;;;;;;;19.50;4.17;;;8.00;99.90;;;;;;4967518;28;20660;-69
2023/01/30 10:40:50;;;;;;;22.27;3.47;;;8.00;99.90;;;;;;4965479;28;20289;-69
2023/01/30 10:43:46;;;;;;;22.93;4.40;;;8.10;99.90;;;;;;4961867;28;20211;-69
2023/01/30 10:46:46;;;;;;;23.43;4.37;;;8.20;99.90;;;;;;4964314;28;20289;-68
2023/01/30 10:49:22;;;;;;;11.87;3.40;;;8.10;99.90;;;;;;4965202;28;20244;-68
2023/01/30 10:52:15;;;;;;;16.70;4.10;;;8.20;99.90;;;;;;4968791;28;20262;-70
2023/01/30 10:55:13;;;;;;;18.27;3.43;;;8.20;99.90;;;;;;4968342;28;20272;-68
2023/01/30 10:58:11;;;;;;;21.27;3.73;;;8.20;99.90;;;;;;4969485;28;20674;-68
2023/01/30 11:00:44;;;;;;;14.27;3.70;;;8.20;99.90;;;;;;4972263;28;20742;-68
2023/01/30 11:03:33;;;;;;;16.53;3.83;;;8.20;99.90;;;;;;4986490;28;20216;-68
2023/01/30 11:06:22;;;;;;;19.67;4.10;;;8.30;99.90;;;;;;4984917;28;20208;-67
2023/01/30 11:08:50;;;;;;;19.43;3.70;;;8.20;99.90;;;;;;4966283;28;20214;-68
2023/01/30 11:11:48;;;;;;;17.63;4.37;;;8.20;99.90;;;;;;4983334;28;20295;-69
2023/01/30 11:14:14;;;;;;;15.47;3.20;;;8.20;99.90;;;;;;4980746;28;20244;-69
2023/01/30 11:16:53;;;;;;;19.53;3.77;;;8.20;99.90;;;;;;4985662;28;20302;-69
2023/01/30 11:19:24;;;;;;;16.60;3.30;;;8.30;99.90;;;;;;4988233;28;20219;-69
2023/01/30 11:21:53;;;;;;;24.30;4.37;;;8.40;99.90;;;;;;4974220;28;20668;-68
2023/01/30 11:24:27;;;;;;;13.53;3.60;;;8.40;99.90;;;;;;4972231;28;20205;-69
2023/01/30 11:27:01;;;;;;;17.23;3.73;;;8.50;99.90;;;;;;4983637;28;20207;-69
2023/01/30 11:29:31;;;;;;;19.90;3.73;;;8.50;99.90;;;;;;4982829;28;20655;-69
2023/01/30 11:32:18;;;;;;;14.17;4.40;;;8.60;99.90;;;;;;4985222;28;20238;-69
2023/01/30 11:35:21;;;;;;;13.40;3.80;;;8.60;99.90;;;;;;4978657;28;20245;-69
2023/01/30 11:37:50;;;;;;;22.80;4.73;;;8.60;99.90;;;;;;4977981;28;20196;-69
2023/01/30 11:40:16;;;;;;;21.57;5.03;;;8.70;99.90;;;;;;4989362;28;20284;-69
2023/01/30 11:42:46;;;;;;;17.30;4.23;;;8.70;99.90;;;;;;4984880;28;20195;-69
2023/01/30 11:45:13;;;;;;;21.23;3.73;;;8.70;99.90;;;;;;4986747;28;20244;-69
2023/01/30 11:48:05;;;;;;;14.53;3.77;;;8.70;99.90;;;;;;4985559;28;20250;-69
2023/01/30 11:50:44;;;;;;;17.83;3.97;;;8.70;99.90;;;;;;4968500;28;20211;-68
2023/01/30 11:53:41;;;;;;;17.47;4.33;;;8.70;99.90;;;;;;4986843;28;20234;-69
2023/01/30 11:56:35;;;;;;;23.73;4.37;;;8.70;99.90;;;;;;4990201;28;20671;-69
2023/01/30 11:59:23;;;;;;;17.43;3.63;;;8.80;99.90;;;;;;4982132;28;20293;-69
2023/01/30 12:01:51;;;;;;;18.70;4.37;;;8.80;99.90;;;;;;4983589;28;20231;-69
2023/01/30 12:04:19;;;;;;;22.00;4.10;;;8.80;99.90;;;;;;4987946;28;20206;-70
2023/01/30 12:06:49;;;;;;;16.67;4.77;;;8.80;99.90;;;;;;4984736;28;20732;-69
2023/01/30 12:09:35;;;;;;;23.83;5.47;;;8.90;99.90;;;;;;4983912;28;20221;-69
2023/01/30 12:12:21;;;;;;;27.93;5.47;;;8.90;99.90;;;;;;4986230;28;20209;-69
2023/01/30 12:14:49;;;;;;;18.93;4.13;;;8.90;99.90;;;;;;4986408;28;20302;-70
2023/01/30 12:17:20;;;;;;;19.63;4.30;;;8.90;99.90;;;;;;4985678;28;20310;-69
2023/01/30 12:20:02;;;;;;;19.47;4.07;;;8.90;99.90;;;;;;4985061;28;20203;-69
2023/01/30 12:22:31;;;;;;;20.63;4.17;;;8.90;99.90;;;;;;4980295;28;20217;-69
2023/01/30 12:25:27;;;;;;;19.60;4.37;;;8.90;99.90;;;;;;4986323;28;20214;-69
2023/01/30 12:28:17;;;;;;;17.00;5.37;;;8.90;99.90;;;;;;4969067;28;20199;-69
2023/01/30 12:30:53;;;;;;;26.73;4.53;;;8.90;99.90;;;;;;4984461;28;20274;-68
2023/01/30 12:33:21;;;;;;;22.53;4.40;;;8.90;99.90;;;;;;4987320;28;20293;-68
2023/01/30 12:35:48;;;;;;;22.60;3.93;;;9.00;99.90;;;;;;4987683;28;20609;-69
2023/01/30 12:38:24;;;;;;;23.23;4.00;;;9.00;99.90;;;;;;4988643;28;20245;-69
2023/01/30 12:41:09;;;;;;;26.33;3.90;;;9.10;99.90;;;;;;4986917;28;20193;-69
2023/01/30 12:43:54;;;;;;;20.97;6.07;;;9.10;99.90;;;;;;4988289;28;20197;-69
2023/01/30 12:46:21;;;;;;;17.80;3.70;;;9.10;99.90;;;;;;4988694;28;20231;-68
2023/01/30 12:48:57;;;;;;;24.33;5.03;;;9.10;99.90;;;;;;4987775;28;20203;-68
2023/01/30 12:51:53;;;;;;;26.43;4.30;;;9.20;99.90;;;;;;4988563;28;20200;-68
2023/01/30 12:54:51;;;;;;;20.90;4.30;;;9.10;99.90;;;;;;4992252;28;20614;-69
2023/01/30 12:57:37;;;;;;;24.57;4.00;;;9.10;99.90;;;;;;4989063;28;20211;-69
2023/01/30 13:00:32;;;;;;;20.37;3.83;;;9.10;99.90;;;;;;4986463;28;20740;-69
2023/01/30 13:03:40;;;;;;;24.37;4.37;;;9.00;99.90;;;;;;4988015;28;20716;-68
2023/01/30 13:06:26;;;;;;;29.20;4.87;;;9.00;99.90;;;;;;4988729;28;20260;-69
2023/01/30 13:09:27;;;;;;;22.73;4.53;;;9.00;99.90;;;;;;4987535;28;20250;-69
2023/01/30 13:12:23;;;;;;;20.97;3.70;;;9.10;99.90;;;;;;4987931;28;20228;-69
2023/01/30 13:15:04;;;;;;;20.97;5.17;;;9.10;99.90;;;;;;4984943;28;20207;-69
2023/01/30 13:17:43;;;;;;;18.30;4.23;;;9.20;99.90;;;;;;4986149;28;20229;-69
2023/01/30 13:20:38;;;;;;;19.47;4.57;;;9.20;99.90;;;;;;4988161;28;20214;-69